Time;durP1;ratioP1;P1;durP2;ratioP2;P2;SDS_P1;SDS_P2;PMS_P1;PMS_P2;Temp;Humidity;BMP_temperature;BMP_pressure;BME280_temperature;BME280_humidity;BME280_pressure;Samples;Min_cycle;Max_cycle;Signal;HPM_P1;HPM_P2
2022/01/25 00:08:41;;;;;;;0.10;0.10;;;2.30;99.90;;;;;;5039234;28;20137;-67
2022/01/25 00:29:46;;;;;;;0.52;0.52;;;2.20;99.90;;;;;;5047344;28;20083;-66
2022/01/25 00:32:13;;;;;;;0.10;0.10;;;2.20;99.90;;;;;;5041169;28;20043;-66
2022/01/25 00:34:39;;;;;;;0.10;0.10;;;2.20;99.90;;;;;;5046162;28;20044;-66
2022/01/25 00:37:05;;;;;;;0.10;0.10;;;2.20;99.90;;;;;;5046752;28;20024;-67
2022/01/25 00:39:31;;;;;;;0.85;0.85;;;2.20;99.90;;;;;;5051128;28;20053;-67
2022/01/25 00:41:57;;;;;;;0.10;0.10;;;2.20;99.90;;;;;;5020277;28;20029;-67
2022/01/25 00:44:23;;;;;;;0.10;0.10;;;2.30;99.90;;;;;;5043060;28;20104;-67
2022/01/25 00:46:48;;;;;;;1.48;1.38;;;2.30;99.90;;;;;;5061881;28;20035;-67
2022/01/25 00:49:25;;;;;;;0.43;0.43;;;2.30;99.90;;;;;;5046833;28;20040;-67
2022/01/25 00:54:27;;;;;;;0.10;0.10;;;2.20;99.90;;;;;;5046973;28;20078;-67
2022/01/25 00:56:53;;;;;;;0.10;0.10;;;2.20;99.90;;;;;;5045006;28;20469;-67
2022/01/25 00:59:25;;;;;;;0.10;0.10;;;2.20;99.90;;;;;;5056936;28;20025;-67
2022/01/25 01:01:55;;;;;;;2.75;1.85;;;2.10;99.90;;;;;;5042968;28;20079;-67
2022/01/25 01:04:22;;;;;;;0.10;0.10;;;2.10;99.90;;;;;;5041442;28;20028;-67
2022/01/25 01:06:49;;;;;;;0.10;0.10;;;2.00;99.90;;;;;;5045339;28;20037;-67
2022/01/25 01:09:17;;;;;;;0.85;0.85;;;2.00;99.90;;;;;;5054518;28;20634;-67
2022/01/25 01:11:59;;;;;;;0.10;0.10;;;2.00;99.90;;;;;;5030417;28;20028;-67
2022/01/25 01:17:49;;;;;;;0.73;0.73;;;2.00;99.90;;;;;;5020694;28;20037;-67
2022/01/25 01:31:33;;;;;;;0.10;0.10;;;1.90;99.90;;;;;;5047820;28;20083;-66
2022/01/25 01:44:04;;;;;;;2.67;2.47;;;1.60;99.90;;;;;;5082804;28;20078;-69
2022/01/25 01:46:43;;;;;;;0.50;0.50;;;1.50;99.90;;;;;;5084084;28;20046;-70
2022/01/25 01:49:11;;;;;;;0.15;0.15;;;1.50;99.90;;;;;;5083362;28;20473;-70
2022/01/25 01:51:41;;;;;;;0.10;0.10;;;1.60;99.90;;;;;;5083593;28;20051;-70
2022/01/25 01:54:11;;;;;;;0.10;0.10;;;1.60;99.90;;;;;;5082996;28;20024;-69
2022/01/25 01:56:39;;;;;;;0.10;0.10;;;1.70;99.90;;;;;;5081884;28;20540;-69
2022/01/25 01:59:11;;;;;;;0.20;0.20;;;1.70;99.90;;;;;;5085420;28;20086;-70
2022/01/25 02:01:40;;;;;;;0.10;0.10;;;1.70;99.90;;;;;;5084275;28;20063;-69
2022/01/25 02:04:07;;;;;;;0.10;0.10;;;1.70;99.90;;;;;;5086600;28;20473;-69
2022/01/25 02:06:33;;;;;;;0.73;0.73;;;1.70;99.90;;;;;;5083751;28;20035;-70
2022/01/25 02:08:59;;;;;;;0.35;0.35;;;1.60;99.90;;;;;;5081546;28;20029;-70
2022/01/25 02:11:24;;;;;;;0.10;0.10;;;1.60;99.90;;;;;;5087603;28;20259;-70
2022/01/25 02:13:51;;;;;;;1.05;1.05;;;1.50;99.90;;;;;;5082995;28;20485;-70
2022/01/25 02:24:33;;;;;;;0.10;0.10;;;1.40;99.90;;;;;;5083030;28;20062;-70
2022/01/25 02:26:59;;;;;;;1.55;1.55;;;1.40;99.90;;;;;;5068725;28;20401;-70
2022/01/25 02:29:25;;;;;;;0.10;0.10;;;1.40;99.90;;;;;;5085263;28;20028;-70
2022/01/25 02:31:55;;;;;;;0.10;0.10;;;1.50;99.90;;;;;;5082593;28;20046;-70
2022/01/25 02:34:21;;;;;;;0.10;0.10;;;1.50;99.90;;;;;;5080620;28;20118;-71
2022/01/25 02:37:02;;;;;;;0.10;0.10;;;1.50;99.90;;;;;;5086404;28;20035;-70
2022/01/25 02:39:28;;;;;;;0.22;0.22;;;1.50;99.90;;;;;;5080628;28;20031;-70
2022/01/25 02:41:54;;;;;;;0.10;0.10;;;1.50;99.90;;;;;;5083474;28;20116;-70
2022/01/25 02:44:28;;;;;;;0.10;0.10;;;1.50;99.90;;;;;;5082615;28;20115;-71
2022/01/25 02:49:42;;;;;;;0.10;0.10;;;1.50;99.90;;;;;;5041160;28;20036;-71
2022/01/25 02:52:08;;;;;;;0.13;0.13;;;1.40;99.90;;;;;;5082324;28;20028;-70
2022/01/25 02:54:35;;;;;;;0.10;0.10;;;1.50;99.90;;;;;;5074061;28;20036;-70
2022/01/25 02:57:01;;;;;;;0.10;0.10;;;1.50;99.90;;;;;;5083208;28;20162;-70
2022/01/25 02:59:27;;;;;;;1.27;1.17;;;1.40;99.90;;;;;;5084106;28;20042;-70
2022/01/25 03:01:52;;;;;;;0.10;0.10;;;1.50;99.90;;;;;;5084698;28;20024;-70
2022/01/25 03:04:23;;;;;;;0.52;0.52;;;1.50;99.90;;;;;;5086943;28;20504;-71
2022/01/25 03:06:50;;;;;;;0.10;0.10;;;1.50;99.90;;;;;;5083160;28;20074;-71
2022/01/25 03:09:16;;;;;;;0.10;0.10;;;1.50;99.90;;;;;;5081867;28;20074;-69
2022/01/25 03:11:45;;;;;;;0.40;0.40;;;1.50;99.90;;;;;;5083307;28;20428;-71
2022/01/25 03:14:12;;;;;;;0.10;0.10;;;1.40;99.90;;;;;;5079675;28;20030;-69
2022/01/25 03:16:46;;;;;;;0.10;0.10;;;1.40;99.90;;;;;;5079267;28;20040;-70
2022/01/25 03:22:15;;;;;;;0.10;0.10;;;1.30;99.90;;;;;;5085692;28;20051;-70
2022/01/25 03:24:41;;;;;;;0.10;0.10;;;1.30;99.90;;;;;;5080437;28;20027;-70
2022/01/25 03:27:08;;;;;;;0.10;0.10;;;1.30;99.90;;;;;;5085636;28;20058;-70
2022/01/25 03:29:33;;;;;;;1.95;1.20;;;1.30;99.90;;;;;;5080750;28;20012;-70
2022/01/25 03:31:59;;;;;;;0.10;0.10;;;1.40;99.90;;;;;;5085869;28;20381;-70
2022/01/25 03:34:25;;;;;;;0.65;0.65;;;1.40;99.90;;;;;;5079775;28;20028;-71
2022/01/25 03:36:50;;;;;;;0.10;0.10;;;1.40;99.90;;;;;;5086298;28;20077;-70
2022/01/25 03:39:16;;;;;;;1.95;1.85;;;1.40;99.90;;;;;;5083295;28;20028;-70
2022/01/25 03:41:42;;;;;;;0.10;0.10;;;1.30;99.90;;;;;;5081700;28;20028;-70
2022/01/25 03:44:08;;;;;;;0.10;0.10;;;1.30;99.90;;;;;;5081533;28;20534;-70
2022/01/25 03:46:55;;;;;;;0.20;0.20;;;1.30;99.90;;;;;;5083179;28;20020;-70
2022/01/25 03:52:06;;;;;;;0.10;0.10;;;1.30;99.90;;;;;;5084194;28;20030;-70
2022/01/25 03:54:32;;;;;;;0.10;0.10;;;1.30;99.90;;;;;;5081713;28;20028;-70
2022/01/25 03:56:58;;;;;;;0.05;0.05;;;1.20;99.90;;;;;;5082856;28;20056;-69
2022/01/25 03:59:23;;;;;;;0.10;0.10;;;1.20;99.90;;;;;;5080443;28;20031;-69
2022/01/25 04:01:49;;;;;;;0.10;0.10;;;1.20;99.90;;;;;;5078584;28;20028;-70
2022/01/25 04:04:19;;;;;;;0.20;0.20;;;1.20;99.90;;;;;;5084640;28;20497;-70
2022/01/25 04:06:49;;;;;;;0.00;0.00;;;1.20;99.90;;;;;;5067116;28;20025;-70
2022/01/25 04:09:15;;;;;;;0.10;0.10;;;1.20;99.90;;;;;;5083567;28;20043;-69
2022/01/25 04:11:44;;;;;;;0.10;0.10;;;1.20;99.90;;;;;;5081827;28;20477;-70
2022/01/25 04:14:10;;;;;;;0.82;0.82;;;1.20;99.90;;;;;;5084700;28;20470;-70
2022/01/25 04:16:42;;;;;;;0.10;0.10;;;1.20;99.90;;;;;;5081131;28;20035;-69
2022/01/25 04:19:18;;;;;;;0.57;0.57;;;1.20;99.90;;;;;;5083847;28;20362;-69
2022/01/25 04:27:12;;;;;;;0.10;0.10;;;1.20;99.90;;;;;;5080104;28;20039;-70
2022/01/25 04:29:38;;;;;;;0.30;0.30;;;1.20;99.90;;;;;;5082886;28;20431;-70
2022/01/25 04:32:06;;;;;;;0.10;0.10;;;1.10;99.90;;;;;;5089657;28;20024;-69
2022/01/25 04:53:15;;;;;;;0.10;0.10;;;1.10;99.90;;;;;;5081912;28;20170;-71
2022/01/25 04:55:52;;;;;;;0.10;0.10;;;1.10;99.90;;;;;;5080400;28;20028;-70
2022/01/25 04:58:29;;;;;;;1.75;1.65;;;1.10;99.90;;;;;;5082289;28;20039;-70
2022/01/25 05:00:54;;;;;;;2.28;2.17;;;1.10;99.90;;;;;;5082219;28;20105;-70
2022/01/25 05:03:27;;;;;;;0.10;0.10;;;1.10;99.90;;;;;;5092146;28;20069;-70
2022/01/25 05:06:07;;;;;;;0.10;0.10;;;1.00;99.90;;;;;;5094403;28;20720;-70
2022/01/25 05:11:13;;;;;;;0.10;0.10;;;1.00;99.90;;;;;;5087224;28;20024;-71
2022/01/25 05:18:46;;;;;;;0.93;0.93;;;0.90;99.90;;;;;;5090167;28;20020;-70
2022/01/25 05:24:10;;;;;;;0.22;0.22;;;1.10;99.90;;;;;;5046235;28;20036;-70
2022/01/25 05:26:35;;;;;;;1.10;1.10;;;1.00;99.90;;;;;;5082945;28;20028;-72
2022/01/25 05:29:01;;;;;;;0.10;0.10;;;1.00;99.90;;;;;;5087257;28;20031;-69
2022/01/25 05:31:27;;;;;;;0.10;0.10;;;0.90;99.90;;;;;;5089944;28;20635;-70
2022/01/25 05:33:52;;;;;;;0.10;0.10;;;0.90;99.90;;;;;;5089192;28;20032;-70
2022/01/25 05:36:18;;;;;;;0.40;0.40;;;0.80;99.90;;;;;;5081832;28;20031;-70
2022/01/25 05:38:46;;;;;;;0.10;0.10;;;0.80;99.90;;;;;;5083554;28;20031;-70
2022/01/25 05:41:13;;;;;;;0.10;0.10;;;0.90;99.90;;;;;;5086046;28;20032;-70
2022/01/25 05:46:19;;;;;;;0.10;0.10;;;0.80;99.90;;;;;;5082834;28;20488;-70
2022/01/25 05:48:47;;;;;;;0.10;0.10;;;0.80;99.90;;;;;;5089040;28;20027;-70
2022/01/25 05:51:13;;;;;;;0.10;0.10;;;0.90;99.90;;;;;;5085001;28;20031;-70
2022/01/25 05:53:40;;;;;;;0.20;0.20;;;0.90;99.90;;;;;;5088513;28;20032;-70
2022/01/25 05:56:06;;;;;;;0.20;0.20;;;0.90;99.90;;;;;;5086263;28;20044;-70
2022/01/25 05:58:32;;;;;;;0.10;0.10;;;0.90;99.90;;;;;;5084560;28;20031;-70
2022/01/25 06:00:57;;;;;;;0.10;0.10;;;0.90;99.90;;;;;;5071888;28;20031;-70
2022/01/25 06:03:23;;;;;;;0.20;0.20;;;0.80;99.90;;;;;;5083720;28;20040;-72
2022/01/25 06:05:48;;;;;;;0.10;0.10;;;0.80;99.90;;;;;;5087416;28;20066;-71
2022/01/25 06:08:14;;;;;;;0.10;0.10;;;0.80;99.90;;;;;;5082592;28;20034;-71
2022/01/25 06:10:40;;;;;;;0.10;0.10;;;0.80;99.90;;;;;;5080986;28;20478;-71
2022/01/25 06:13:06;;;;;;;0.10;0.10;;;0.80;99.90;;;;;;5067547;28;20035;-71
2022/01/25 06:15:32;;;;;;;0.15;0.15;;;0.80;99.90;;;;;;5081661;28;20034;-71
2022/01/25 06:17:57;;;;;;;0.10;0.10;;;0.80;99.90;;;;;;5085371;28;20389;-71
2022/01/25 06:20:23;;;;;;;0.35;0.35;;;0.80;99.90;;;;;;5080094;28;20115;-70
2022/01/25 06:22:49;;;;;;;1.08;1.02;;;0.80;99.90;;;;;;5083475;28;20081;-71
2022/01/25 06:25:15;;;;;;;0.05;0.05;;;0.80;99.90;;;;;;5082616;28;20021;-69
2022/01/25 06:27:43;;;;;;;0.10;0.10;;;0.20;99.90;;;;;;5084557;28;20016;-72
2022/01/25 06:30:14;;;;;;;0.00;0.00;;;0.80;99.90;;;;;;5062853;28;20028;-70
2022/01/25 06:32:41;;;;;;;3.13;2.92;;;0.80;99.90;;;;;;5088906;28;20481;-71
2022/01/25 06:35:07;;;;;;;0.10;0.10;;;0.80;99.90;;;;;;5091858;28;20035;-71
2022/01/25 06:37:34;;;;;;;0.10;0.10;;;1.70;99.90;;;;;;5098394;28;20028;-72
2022/01/25 06:39:59;;;;;;;1.48;1.38;;;0.70;99.90;;;;;;5101100;28;20116;-72
2022/01/25 06:42:29;;;;;;;0.10;0.10;;;0.70;99.90;;;;;;5090217;28;20131;-71
2022/01/25 06:44:59;;;;;;;0.10;0.10;;;0.70;99.90;;;;;;5072172;28;20146;-71
2022/01/25 06:47:25;;;;;;;0.10;0.10;;;0.70;99.90;;;;;;5094773;28;20103;-71
2022/01/25 06:49:51;;;;;;;0.57;0.57;;;0.70;99.90;;;;;;5070000;28;20194;-70
2022/01/25 06:52:16;;;;;;;0.10;0.10;;;0.70;99.90;;;;;;5082515;28;20070;-71
2022/01/25 06:54:42;;;;;;;0.10;0.10;;;0.70;99.90;;;;;;5064101;28;20035;-70
2022/01/25 06:57:08;;;;;;;0.20;0.20;;;0.70;99.90;;;;;;5088078;28;20071;-70
2022/01/25 06:59:34;;;;;;;0.85;0.85;;;0.70;99.90;;;;;;5081541;28;20034;-71
2022/01/25 07:01:59;;;;;;;0.10;0.10;;;0.70;99.90;;;;;;5079718;28;20032;-71
2022/01/25 07:04:25;;;;;;;0.30;0.30;;;0.70;99.90;;;;;;5079221;28;20064;-74
2022/01/25 07:06:50;;;;;;;0.10;0.10;;;0.70;99.90;;;;;;5076076;28;20055;-74
2022/01/25 07:09:16;;;;;;;0.10;0.10;;;0.60;99.90;;;;;;5082450;28;20031;-72
2022/01/25 07:11:42;;;;;;;0.10;0.10;;;0.50;99.90;;;;;;5081537;28;20120;-70
2022/01/25 07:14:07;;;;;;;2.03;0.88;;;0.60;99.90;;;;;;5069363;28;20119;-73
2022/01/25 07:16:33;;;;;;;0.10;0.10;;;0.60;99.90;;;;;;5080183;28;20115;-70
2022/01/25 07:18:59;;;;;;;0.10;0.10;;;0.70;99.90;;;;;;5089522;28;20157;-70
2022/01/25 07:21:25;;;;;;;0.10;0.10;;;0.70;99.90;;;;;;5087980;28;20028;-70
2022/01/25 07:23:50;;;;;;;0.20;0.20;;;0.70;99.90;;;;;;5079802;28;20032;-72
2022/01/25 07:26:16;;;;;;;2.72;2.55;;;0.70;99.90;;;;;;5084692;28;20391;-71
2022/01/25 07:28:42;;;;;;;0.10;0.10;;;0.70;99.90;;;;;;5083932;28;20020;-71
2022/01/25 07:31:07;;;;;;;1.98;1.88;;;0.80;99.90;;;;;;5069778;28;20564;-71
2022/01/25 07:33:33;;;;;;;0.85;0.85;;;0.80;99.90;;;;;;5086743;28;20048;-71
2022/01/25 07:35:58;;;;;;;0.65;0.65;;;0.80;99.90;;;;;;5082176;28;20028;-73
2022/01/25 07:38:24;;;;;;;0.10;0.10;;;0.80;99.90;;;;;;5086385;28;20397;-70
2022/01/25 07:40:50;;;;;;;0.90;0.90;;;0.90;99.90;;;;;;5080552;22;20069;-71
2022/01/25 07:43:16;;;;;;;0.52;0.52;;;0.80;99.90;;;;;;5044105;28;20205;-72
2022/01/25 07:45:42;;;;;;;0.10;0.10;;;0.90;99.90;;;;;;5046582;28;20308;-71
2022/01/25 07:48:10;;;;;;;0.98;0.98;;;0.90;99.90;;;;;;5050000;28;20105;-71
2022/01/25 07:50:36;;;;;;;0.32;0.32;;;0.90;99.90;;;;;;5048804;28;20108;-73
2022/01/25 07:53:02;;;;;;;0.10;0.10;;;0.90;99.90;;;;;;5032400;28;20441;-72
2022/01/25 07:55:28;;;;;;;0.10;0.10;;;0.80;99.90;;;;;;5045847;28;20107;-74
2022/01/25 07:57:54;;;;;;;0.10;0.10;;;0.80;99.90;;;;;;5046139;28;20109;-72
2022/01/25 08:00:20;;;;;;;0.10;0.10;;;0.90;99.90;;;;;;5032093;28;20039;-74
2022/01/25 08:02:47;;;;;;;0.22;0.22;;;0.90;99.90;;;;;;5034926;28;20094;-72
2022/01/25 08:05:17;;;;;;;0.20;0.20;;;1.00;99.90;;;;;;5045993;28;20055;-72
2022/01/25 08:07:43;;;;;;;0.10;0.10;;;1.00;99.90;;;;;;5053190;28;20110;-73
2022/01/25 08:10:10;;;;;;;0.10;0.10;;;1.00;99.90;;;;;;5046141;28;20548;-71
2022/01/25 08:12:36;;;;;;;0.10;0.10;;;1.00;99.90;;;;;;5047600;28;20033;-71
2022/01/25 08:15:04;;;;;;;0.10;0.10;;;1.00;99.90;;;;;;5046504;28;20032;-72
2022/01/25 08:17:30;;;;;;;0.10;0.10;;;1.00;99.90;;;;;;5045416;28;20021;-72
2022/01/25 08:19:55;;;;;;;0.22;0.22;;;1.10;99.90;;;;;;5046218;28;20056;-72
2022/01/25 08:22:21;;;;;;;0.10;0.10;;;1.20;99.90;;;;;;5048819;28;20098;-73
2022/01/25 08:24:48;;;;;;;0.10;0.10;;;1.20;99.90;;;;;;5032963;28;20017;-72
2022/01/25 08:27:14;;;;;;;0.10;0.10;;;1.30;99.90;;;;;;5041448;28;20036;-72
2022/01/25 08:29:40;;;;;;;0.15;0.15;;;1.50;99.90;;;;;;5032192;28;20094;-71
2022/01/25 08:32:06;;;;;;;0.40;0.40;;;1.30;99.90;;;;;;5048253;28;20029;-74
2022/01/25 08:34:32;;;;;;;0.63;0.63;;;1.40;99.90;;;;;;5052438;28;20032;-71
2022/01/25 08:36:58;;;;;;;0.20;0.20;;;1.40;99.90;;;;;;5063968;28;20049;-72
2022/01/25 08:39:26;;;;;;;0.10;0.10;;;1.40;99.90;;;;;;5042626;28;20384;-73
2022/01/25 08:41:53;;;;;;;2.78;1.65;;;1.50;99.90;;;;;;5047846;28;20024;-72
2022/01/25 08:44:19;;;;;;;0.10;0.10;;;1.50;99.90;;;;;;5048352;28;20033;-72
2022/01/25 08:46:45;;;;;;;1.92;1.63;;;1.60;99.90;;;;;;5051370;28;20032;-72
2022/01/25 08:49:10;;;;;;;0.30;0.30;;;1.60;99.90;;;;;;5051439;28;20029;-72
2022/01/25 08:51:36;;;;;;;0.10;0.10;;;1.70;99.90;;;;;;5049737;28;20017;-72
2022/01/25 08:54:02;;;;;;;0.10;0.10;;;1.70;99.90;;;;;;5049402;28;20047;-72
2022/01/25 08:56:28;;;;;;;0.10;0.10;;;1.70;99.90;;;;;;5039667;28;20029;-71
2022/01/25 08:58:54;;;;;;;0.55;0.55;;;1.70;99.90;;;;;;5050166;28;20040;-73
2022/01/25 09:01:20;;;;;;;0.70;0.70;;;1.70;99.90;;;;;;5033519;28;20040;-72
2022/01/25 09:03:47;;;;;;;1.35;1.35;;;1.90;99.90;;;;;;5032830;28;20044;-73
2022/01/25 09:06:12;;;;;;;0.20;0.20;;;2.10;99.90;;;;;;5032800;28;20028;-72
2022/01/25 09:08:39;;;;;;;0.30;0.30;;;2.20;99.90;;;;;;5045278;28;20029;-72
2022/01/25 09:11:06;;;;;;;0.75;0.75;;;2.10;99.90;;;;;;5054578;28;20025;-72
2022/01/25 09:13:32;;;;;;;0.93;0.68;;;2.10;99.90;;;;;;5053099;28;20017;-72
2022/01/25 09:15:59;;;;;;;0.57;0.57;;;2.20;99.90;;;;;;5051063;28;20025;-72
2022/01/25 09:18:25;;;;;;;0.10;0.10;;;2.20;99.90;;;;;;5048368;28;20059;-72
2022/01/25 09:20:51;;;;;;;0.22;0.22;;;2.20;99.90;;;;;;5053468;28;20025;-75
2022/01/25 09:23:19;;;;;;;0.20;0.20;;;2.20;99.90;;;;;;5051356;28;20017;-75
2022/01/25 09:25:47;;;;;;;0.20;0.20;;;2.20;99.90;;;;;;5051434;28;20017;-75
2022/01/25 09:28:14;;;;;;;0.10;0.10;;;2.10;99.90;;;;;;5038007;28;20016;-71
2022/01/25 09:30:39;;;;;;;0.38;0.38;;;2.10;99.90;;;;;;5048586;28;20025;-72
2022/01/25 09:33:05;;;;;;;0.52;0.52;;;2.20;99.90;;;;;;5048609;28;20592;-72
2022/01/25 09:35:31;;;;;;;0.10;0.10;;;2.20;99.90;;;;;;5050911;28;20039;-71
2022/01/25 09:37:57;;;;;;;2.53;1.08;;;2.20;99.90;;;;;;5049115;28;20051;-72
2022/01/25 09:40:24;;;;;;;0.20;0.20;;;2.30;99.90;;;;;;5046658;28;20032;-71
2022/01/25 09:42:53;;;;;;;0.10;0.10;;;2.40;99.90;;;;;;5052365;28;20552;-71
2022/01/25 09:45:19;;;;;;;0.10;0.10;;;2.40;99.90;;;;;;5049766;28;20036;-73
2022/01/25 09:47:46;;;;;;;0.55;0.55;;;2.50;99.90;;;;;;5048278;28;20036;-71
2022/01/25 09:50:12;;;;;;;0.20;0.20;;;2.40;99.90;;;;;;5045211;28;20017;-72
2022/01/25 09:52:41;;;;;;;0.10;0.10;;;2.50;99.90;;;;;;5027429;28;20028;-70
2022/01/25 09:55:12;;;;;;;0.10;0.10;;;2.50;99.90;;;;;;5050081;28;20029;-71
2022/01/25 09:57:38;;;;;;;0.20;0.20;;;2.60;99.90;;;;;;5047344;28;20025;-71
2022/01/25 10:00:06;;;;;;;0.03;0.03;;;2.70;99.90;;;;;;5051287;28;20478;-72
2022/01/25 10:03:09;;;;;;;0.10;0.10;;;2.70;99.90;;;;;;5046447;28;20078;-72
2022/01/25 10:05:34;;;;;;;1.63;1.55;;;2.80;99.90;;;;;;5048418;28;20376;-71
2022/01/25 10:08:05;;;;;;;1.92;0.85;;;3.00;99.90;;;;;;5051799;28;20060;-72
2022/01/25 10:10:33;;;;;;;0.10;0.10;;;3.00;99.90;;;;;;5048032;28;20024;-72
2022/01/25 10:13:15;;;;;;;0.20;0.20;;;3.10;99.90;;;;;;5053381;28;20101;-71
2022/01/25 10:15:42;;;;;;;1.60;1.40;;;3.20;99.90;;;;;;5050355;28;20032;-74
2022/01/25 10:18:08;;;;;;;0.10;0.10;;;3.40;99.90;;;;;;5048512;28;20316;-72
2022/01/25 10:20:40;;;;;;;0.10;0.10;;;3.40;99.90;;;;;;5049404;28;20081;-72
2022/01/25 10:23:17;;;;;;;0.13;0.13;;;3.40;99.90;;;;;;5049608;28;20037;-71
2022/01/25 10:25:45;;;;;;;2.88;2.60;;;3.40;99.90;;;;;;5046713;28;20153;-71
2022/01/25 10:28:15;;;;;;;0.10;0.10;;;3.50;99.90;;;;;;5047920;28;20059;-72
2022/01/25 10:30:54;;;;;;;0.10;0.10;;;3.50;99.90;;;;;;5050420;28;20067;-71
2022/01/25 10:33:36;;;;;;;0.10;0.10;;;3.60;99.90;;;;;;5047855;28;20029;-72
2022/01/25 10:36:20;;;;;;;0.10;0.10;;;3.60;99.90;;;;;;5049595;28;20113;-72
2022/01/25 10:38:48;;;;;;;0.22;0.22;;;3.60;99.90;;;;;;5045499;28;20021;-72
2022/01/25 10:41:16;;;;;;;0.30;0.30;;;3.70;99.90;;;;;;5046343;28;20035;-72
2022/01/25 10:43:44;;;;;;;3.13;2.85;;;3.80;99.90;;;;;;5048623;28;20079;-73
2022/01/25 10:46:09;;;;;;;2.53;2.35;;;3.90;99.90;;;;;;5050938;28;20020;-72
2022/01/25 10:48:36;;;;;;;0.10;0.10;;;3.80;99.90;;;;;;5028296;28;20021;-72
2022/01/25 10:51:04;;;;;;;1.58;1.48;;;3.90;99.90;;;;;;5043158;28;20021;-71
2022/01/25 10:53:30;;;;;;;2.95;2.75;;;3.90;99.90;;;;;;5049612;28;20025;-71
2022/01/25 10:56:00;;;;;;;0.15;0.15;;;4.00;99.90;;;;;;5046894;28;20074;-72
2022/01/25 10:58:26;;;;;;;0.10;0.10;;;4.00;99.90;;;;;;5046584;28;20033;-71
2022/01/25 11:00:52;;;;;;;0.10;0.10;;;4.00;99.90;;;;;;5038217;28;20521;-72
2022/01/25 11:03:42;;;;;;;0.10;0.10;;;4.10;99.90;;;;;;5049436;28;20033;-71
2022/01/25 11:06:18;;;;;;;0.10;0.10;;;4.20;99.90;;;;;;5028815;28;20056;-71
2022/01/25 11:08:48;;;;;;;1.02;1.02;;;4.30;99.90;;;;;;5046606;28;20130;-72
2022/01/25 11:11:25;;;;;;;0.10;0.10;;;4.40;99.90;;;;;;5047241;28;20025;-72
2022/01/25 11:13:53;;;;;;;0.10;0.10;;;4.50;99.90;;;;;;5048354;28;20036;-73
2022/01/25 11:16:19;;;;;;;0.10;0.10;;;4.60;99.90;;;;;;5029660;28;20017;-76
2022/01/25 11:18:45;;;;;;;2.72;1.75;;;4.70;99.90;;;;;;5031864;28;20146;-73
2022/01/25 11:21:12;;;;;;;0.47;0.47;;;4.70;99.90;;;;;;5042731;28;20043;-72
2022/01/25 11:23:39;;;;;;;0.35;0.35;;;4.70;99.90;;;;;;5047300;28;20021;-72
2022/01/25 11:26:09;;;;;;;0.10;0.10;;;4.90;99.90;;;;;;5050759;28;20021;-74
2022/01/25 11:28:37;;;;;;;1.27;1.27;;;4.90;99.90;;;;;;5048499;28;20104;-73
2022/01/25 11:31:08;;;;;;;0.10;0.10;;;4.90;99.90;;;;;;5052584;28;20029;-80
2022/01/25 11:33:38;;;;;;;0.10;0.10;;;5.00;99.90;;;;;;5056220;28;20035;-72
2022/01/25 11:36:11;;;;;;;0.20;0.20;;;5.00;99.90;;;;;;5054880;28;20025;-72
2022/01/25 11:38:43;;;;;;;0.10;0.10;;;5.00;99.90;;;;;;5045971;28;20029;-72
2022/01/25 11:41:14;;;;;;;0.10;0.10;;;4.90;99.90;;;;;;5028822;28;20119;-72
2022/01/25 11:44:03;;;;;;;0.28;0.28;;;4.90;99.90;;;;;;5051928;28;20024;-75
2022/01/25 11:46:29;;;;;;;0.10;0.10;;;4.90;99.90;;;;;;5054425;28;20025;-75
2022/01/25 11:48:59;;;;;;;1.48;1.38;;;5.20;99.90;;;;;;5021351;28;20044;-75
2022/01/25 11:51:25;;;;;;;0.10;0.10;;;4.80;99.90;;;;;;5049118;28;20507;-73
2022/01/25 11:53:51;;;;;;;0.52;0.52;;;4.90;99.90;;;;;;5047278;28;20024;-72
2022/01/25 11:56:18;;;;;;;0.40;0.40;;;4.90;99.90;;;;;;5053546;28;20029;-77
2022/01/25 11:58:57;;;;;;;0.10;0.10;;;5.10;99.90;;;;;;5044038;28;20033;-70
2022/01/25 12:01:26;;;;;;;0.55;0.55;;;5.10;99.90;;;;;;5045901;28;20025;-74
2022/01/25 12:03:57;;;;;;;0.13;0.13;;;4.70;99.90;;;;;;5032515;28;20029;-72
2022/01/25 12:06:30;;;;;;;0.10;0.10;;;4.60;99.90;;;;;;5046750;28;20052;-72
2022/01/25 12:11:51;;;;;;;0.10;0.10;;;4.90;99.90;;;;;;5053776;28;20044;-73
2022/01/25 12:14:41;;;;;;;0.10;0.10;;;5.00;99.90;;;;;;5051261;28;20043;-72
2022/01/25 12:17:06;;;;;;;0.10;0.10;;;5.20;99.90;;;;;;5053642;28;20044;-72
2022/01/25 12:19:35;;;;;;;0.10;0.10;;;5.30;99.90;;;;;;5050479;28;20267;-72
2022/01/25 12:22:12;;;;;;;0.10;0.10;;;5.90;99.90;;;;;;5053112;28;20509;-71
2022/01/25 12:24:46;;;;;;;0.47;0.47;;;5.30;99.90;;;;;;5051156;28;20107;-72
2022/01/25 12:27:29;;;;;;;0.15;0.15;;;5.30;99.90;;;;;;5034714;28;20017;-72
2022/01/25 12:30:14;;;;;;;0.10;0.10;;;5.30;99.90;;;;;;5052673;28;20144;-71
2022/01/25 12:33:08;;;;;;;1.10;1.10;;;5.40;99.90;;;;;;5053118;28;20043;-74
2022/01/25 12:35:45;;;;;;;0.10;0.10;;;5.20;99.90;;;;;;5051454;28;20028;-73
2022/01/25 12:38:12;;;;;;;0.10;0.10;;;5.30;99.90;;;;;;5047690;28;20013;-71
2022/01/25 12:41:02;;;;;;;0.10;0.10;;;5.20;99.90;;;;;;5054985;28;20063;-72
2022/01/25 12:43:39;;;;;;;0.10;0.10;;;5.30;99.90;;;;;;5049306;28;20041;-73
2022/01/25 12:46:09;;;;;;;0.10;0.10;;;5.30;99.90;;;;;;5055023;28;20039;-73
2022/01/25 12:48:42;;;;;;;1.95;1.85;;;5.30;99.90;;;;;;5050551;28;20044;-71
2022/01/25 12:51:11;;;;;;;0.40;0.40;;;5.30;99.90;;;;;;5052167;28;20044;-72
2022/01/25 12:53:39;;;;;;;0.10;0.10;;;5.30;99.90;;;;;;5054852;28;20025;-72
2022/01/25 12:56:10;;;;;;;0.10;0.10;;;5.20;99.90;;;;;;5050701;28;20020;-72
2022/01/25 12:58:37;;;;;;;0.20;0.20;;;5.40;99.90;;;;;;5032535;28;20017;-72
2022/01/25 13:01:10;;;;;;;0.10;0.10;;;5.40;99.90;;;;;;5050436;28;20032;-73
2022/01/25 13:03:48;;;;;;;0.10;0.10;;;5.30;99.90;;;;;;5049774;28;20115;-73
2022/01/25 13:06:18;;;;;;;0.10;0.10;;;5.40;99.90;;;;;;5050951;28;20167;-72
2022/01/25 13:08:53;;;;;;;0.20;0.20;;;5.50;99.90;;;;;;5049723;28;20106;-71
2022/01/25 13:11:24;;;;;;;0.28;0.28;;;5.40;99.90;;;;;;5047732;28;20290;-72
2022/01/25 13:14:14;;;;;;;0.10;0.10;;;5.40;99.90;;;;;;5031983;28;20025;-73
2022/01/25 13:17:06;;;;;;;0.60;0.60;;;5.30;99.90;;;;;;5050992;28;20033;-71
2022/01/25 13:19:42;;;;;;;0.10;0.10;;;5.30;99.90;;;;;;5052002;28;20089;-73
2022/01/25 13:22:13;;;;;;;0.38;0.38;;;5.20;99.90;;;;;;5049395;28;20522;-72
2022/01/25 13:24:55;;;;;;;0.20;0.20;;;5.40;99.90;;;;;;5048884;28;20063;-73
2022/01/25 13:27:21;;;;;;;2.58;1.33;;;5.50;99.90;;;;;;5049365;28;20028;-72
2022/01/25 13:32:39;;;;;;;0.40;0.40;;;5.50;99.90;;;;;;5050069;28;20095;-72
2022/01/25 13:35:25;;;;;;;0.50;0.50;;;5.70;99.90;;;;;;5049992;28;20040;-72
2022/01/25 13:38:16;;;;;;;0.10;0.10;;;7.50;99.90;;;;;;5048579;28;20064;-73
2022/01/25 13:41:05;;;;;;;0.00;0.00;;;9.50;99.90;;;;;;5068124;22;20063;-72
2022/01/25 13:45:43;;;;;;;1.05;1.05;;;10.50;99.90;;;;;;5087979;28;20030;-71
2022/01/25 13:46:19;;;;;;;0.10;0.10;;;10.90;99.90;;;;;;5084718;28;20088;-72
2022/01/25 13:48:46;;;;;;;0.40;0.40;;;10.80;99.90;;;;;;5069369;28;20034;-74
2022/01/25 13:51:18;;;;;;;0.10;0.10;;;11.00;99.90;;;;;;5086132;28;20496;-72
2022/01/25 13:53:53;;;;;;;0.10;0.10;;;10.90;99.90;;;;;;5086131;28;20031;-73
2022/01/25 13:56:21;;;;;;;0.10;0.10;;;11.10;99.90;;;;;;5077344;28;20099;-72
2022/01/25 13:58:50;;;;;;;0.03;0.03;;;11.30;99.90;;;;;;5079802;28;20020;-73
2022/01/25 14:01:19;;;;;;;0.10;0.10;;;11.30;99.10;;;;;;5072073;28;20028;-73
2022/01/25 14:04:09;;;;;;;0.00;0.00;;;11.10;99.90;;;;;;5083890;28;20028;-73
2022/01/25 14:06:42;;;;;;;0.00;0.00;;;11.20;99.90;;;;;;5067048;28;20123;-72
2022/01/25 14:09:23;;;;;;;0.10;0.10;;;10.90;99.60;;;;;;5082369;28;20024;-73
2022/01/25 14:21:39;;;;;;;0.52;0.52;;;10.50;99.90;;;;;;5073474;28;20028;-73
2022/01/25 14:25:48;;;;;;;0.00;0.00;;;9.70;99.90;;;;;;5091127;28;20044;-72
2022/01/25 14:28:18;;;;;;;0.10;0.10;;;9.50;99.90;;;;;;5084999;28;20024;-74
2022/01/25 14:30:47;;;;;;;0.10;0.10;;;9.30;99.90;;;;;;5085652;28;20016;-72
2022/01/25 14:33:19;;;;;;;0.10;0.10;;;8.80;99.90;;;;;;5078593;28;20070;-74
2022/01/25 14:35:53;;;;;;;0.10;0.10;;;8.90;99.90;;;;;;5086176;28;20047;-74
2022/01/25 14:38:19;;;;;;;;;;;8.90;99.90;;;;;;5088812;28;20077;-74
2022/01/25 14:41:03;;;;;;;0.10;0.10;;;8.70;99.90;;;;;;5073074;28;19917;-72
2022/01/25 14:43:35;;;;;;;0.03;0.03;;;8.80;99.90;;;;;;5079884;28;20035;-71
2022/01/25 14:46:10;;;;;;;0.10;0.10;;;8.80;99.90;;;;;;5089031;28;20035;-75
2022/01/25 14:48:38;;;;;;;0.10;0.10;;;8.70;99.90;;;;;;5086571;28;20119;-72
2022/01/25 14:51:11;;;;;;;0.10;0.10;;;7.90;99.90;;;;;;5085202;28;20043;-73
2022/01/25 14:53:37;;;;;;;1.35;1.30;;;7.70;99.90;;;;;;5083326;28;20031;-73
2022/01/25 14:56:05;;;;;;;0.63;0.63;;;7.30;99.90;;;;;;5085825;28;20070;-74
2022/01/25 15:01:17;;;;;;;0.10;0.10;;;6.60;99.90;;;;;;5083884;28;20281;-73
2022/01/25 15:03:44;;;;;;;0.47;0.47;;;6.80;99.90;;;;;;5084931;28;20051;-73
2022/01/25 15:06:11;;;;;;;0.10;0.10;;;6.60;99.90;;;;;;5086364;28;20105;-74
2022/01/25 15:08:37;;;;;;;0.10;0.10;;;6.40;99.90;;;;;;5074944;28;20020;-73
2022/01/25 15:11:03;;;;;;;0.10;0.10;;;6.40;99.90;;;;;;5083678;28;20120;-74
2022/01/25 15:13:29;;;;;;;0.47;0.47;;;6.10;99.90;;;;;;5084850;28;20121;-76
2022/01/25 15:15:57;;;;;;;0.20;0.20;;;5.90;99.90;;;;;;5083398;28;20476;-73